createdAt,value
2022-11-07T00:02:08.008Z,8.52
2022-11-07T00:04:34.829Z,5.72
2022-11-07T00:07:01.105Z,6.63
2022-11-07T00:09:27.494Z,8.05
2022-11-07T00:11:54.007Z,9.48
2022-11-07T00:14:20.290Z,11.02
2022-11-07T00:16:47.309Z,7.20
2022-11-07T00:19:14.970Z,8.52
2022-11-07T00:21:41.375Z,8.07
2022-11-07T00:24:08.393Z,6.57
2022-11-07T00:26:35.019Z,11.50
2022-11-07T00:29:01.547Z,10.07
2022-11-07T00:31:27.836Z,8.48
2022-11-07T00:33:54.134Z,9.77
2022-11-07T00:36:25.343Z,10.73
2022-11-07T00:38:51.888Z,10.07
2022-11-07T00:41:18.582Z,10.18
2022-11-07T00:43:45.018Z,10.65
2022-11-07T00:46:12.063Z,9.32
2022-11-07T00:48:38.419Z,9.43
2022-11-07T00:51:07.874Z,10.57
2022-11-07T00:53:34.205Z,11.57
2022-11-07T00:56:01.374Z,12.40
2022-11-07T00:58:27.647Z,9.00
2022-11-07T01:00:53.928Z,9.88
2022-11-07T01:03:38.857Z,8.13
2022-11-07T01:06:05.316Z,12.02
2022-11-07T01:08:31.824Z,9.45
2022-11-07T01:10:58.851Z,9.77
2022-11-07T01:13:25.673Z,9.57
2022-11-07T01:15:52.306Z,10.30
2022-11-07T01:18:18.632Z,9.50
2022-11-07T01:20:44.884Z,12.75
2022-11-07T01:23:11.299Z,11.65
2022-11-07T01:25:38.406Z,10.57
2022-11-07T01:28:05.046Z,10.00
2022-11-07T01:30:31.680Z,14.45
2022-11-07T01:32:57.997Z,9.63
2022-11-07T01:35:24.279Z,16.85
2022-11-07T01:37:50.540Z,13.75
2022-11-07T01:40:16.865Z,12.48
2022-11-07T01:42:43.127Z,14.05
2022-11-07T01:45:14.120Z,14.43
2022-11-07T01:47:40.492Z,11.30
2022-11-07T01:50:07.237Z,12.18
2022-11-07T01:52:35.273Z,15.82
2022-11-07T01:55:10.092Z,11.15
2022-11-07T01:57:42.519Z,12.77
2022-11-07T02:00:11.097Z,12.32
2022-11-07T02:02:37.702Z,12.65
2022-11-07T02:05:05.542Z,14.43
2022-11-07T02:07:32.064Z,14.13
2022-11-07T02:09:59.105Z,12.77
2022-11-07T02:12:26.306Z,11.90
2022-11-07T02:14:53.236Z,17.67
2022-11-07T02:17:19.622Z,12.88
2022-11-07T02:19:56.487Z,16.55
2022-11-07T02:22:52.171Z,17.33
2022-11-07T02:25:19.470Z,13.07
2022-11-07T02:27:46.880Z,10.98
2022-11-07T02:30:18.019Z,16.13
2022-11-07T02:32:44.335Z,15.18
2022-11-07T02:35:29.470Z,14.63
2022-11-07T02:37:55.821Z,16.77
2022-11-07T02:40:22.177Z,17.63
2022-11-07T02:42:48.728Z,16.25
2022-11-07T02:45:17.352Z,19.05
2022-11-07T02:47:43.670Z,20.80
2022-11-07T02:50:10.883Z,20.58
2022-11-07T02:52:37.326Z,20.35
2022-11-07T02:55:03.991Z,15.23
2022-11-07T02:57:30.271Z,19.00
2022-11-07T02:59:57.548Z,16.23
2022-11-07T03:02:24.374Z,19.38
2022-11-07T03:04:50.899Z,16.77
2022-11-07T03:07:17.361Z,16.38
2022-11-07T03:09:43.667Z,16.92
2022-11-07T03:12:10.021Z,13.15
2022-11-07T03:14:37.014Z,15.02
2022-11-07T03:17:03.319Z,18.40
2022-11-07T03:19:29.560Z,14.63
2022-11-07T03:21:55.842Z,16.08
2022-11-07T03:24:22.162Z,14.57
2022-11-07T03:26:48.412Z,16.08
2022-11-07T03:29:14.729Z,18.15
2022-11-07T03:31:42.124Z,17.00
2022-11-07T03:34:08.464Z,18.52
2022-11-07T03:36:34.752Z,15.82
2022-11-07T03:39:01.074Z,25.05
2022-11-07T03:41:27.482Z,22.73
2022-11-07T03:43:53.974Z,19.88
2022-11-07T03:46:20.233Z,15.57
2022-11-07T03:48:46.540Z,13.13
2022-11-07T03:51:12.821Z,14.18
2022-11-07T03:53:39.076Z,14.45
2022-11-07T03:56:06.115Z,13.77
2022-11-07T03:58:32.367Z,16.65
2022-11-07T04:00:58.672Z,16.30
2022-11-07T04:03:24.911Z,22.33
2022-11-07T04:05:51.172Z,13.82
2022-11-07T04:08:17.836Z,18.13
2022-11-07T04:10:44.098Z,16.95
2022-11-07T04:13:29.092Z,14.05
2022-11-07T04:16:17.579Z,15.48
2022-11-07T04:18:44.184Z,17.95
2022-11-07T04:21:10.473Z,16.55
2022-11-07T04:23:37.239Z,20.45
2022-11-07T04:26:22.363Z,25.90
2022-11-07T04:28:48.640Z,19.95
2022-11-07T04:31:14.921Z,15.18
2022-11-07T04:33:41.199Z,19.83
2022-11-07T04:36:07.682Z,19.85
2022-11-07T04:38:33.961Z,17.52
2022-11-07T04:41:00.257Z,14.10
2022-11-07T04:43:27.040Z,13.50
2022-11-07T04:45:53.373Z,14.75
2022-11-07T04:48:19.684Z,13.23
2022-11-07T04:50:46.107Z,13.20
2022-11-07T04:53:13.399Z,16.10
2022-11-07T04:55:39.987Z,13.50
2022-11-07T04:58:07.046Z,12.23
2022-11-07T05:00:33.650Z,14.50
2022-11-07T05:02:59.994Z,14.75
2022-11-07T05:05:26.317Z,10.48
2022-11-07T05:07:52.591Z,13.35
2022-11-07T05:10:23.810Z,11.82
2022-11-07T05:12:50.383Z,11.25
2022-11-07T05:15:17.224Z,12.20
2022-11-07T05:17:43.709Z,11.20
2022-11-07T05:20:30.304Z,11.32
2022-11-07T05:23:15.934Z,9.38
2022-11-07T05:25:43.642Z,16.27
2022-11-07T05:28:11.032Z,11.88
2022-11-07T05:30:41.315Z,10.68
2022-11-07T05:33:11.289Z,9.40
2022-11-07T05:35:37.655Z,11.10
2022-11-07T05:38:04.430Z,9.32
2022-11-07T05:40:31.099Z,10.85
2022-11-07T05:43:04.655Z,8.68
2022-11-07T05:45:31.367Z,12.82
2022-11-07T05:47:58.770Z,10.27
2022-11-07T05:50:25.118Z,9.88
2022-11-07T05:52:51.478Z,6.82
2022-11-07T05:55:18.459Z,9.30
2022-11-07T05:57:45.377Z,10.93
2022-11-07T06:00:12.034Z,12.48
2022-11-07T06:02:41.325Z,10.15
2022-11-07T06:05:07.869Z,12.35
2022-11-07T06:07:35.000Z,10.43
2022-11-07T06:10:01.361Z,9.95
2022-11-07T06:12:27.693Z,12.80
2022-11-07T06:14:54.048Z,10.23
2022-11-07T06:17:20.337Z,12.88
2022-11-07T06:19:46.657Z,14.95
2022-11-07T06:22:12.942Z,8.75
2022-11-07T06:24:39.219Z,8.80
2022-11-07T06:27:05.493Z,9.52
2022-11-07T06:29:31.759Z,11.13
2022-11-07T06:31:58.028Z,9.18
2022-11-07T06:34:24.351Z,9.02
2022-11-07T06:37:02.608Z,9.23
2022-11-07T06:39:29.365Z,9.75
2022-11-07T06:41:55.649Z,11.52
2022-11-07T06:44:21.927Z,10.40
2022-11-07T06:46:48.199Z,13.38
2022-11-07T06:49:15.167Z,8.23
2022-11-07T06:51:46.891Z,12.85
2022-11-07T06:54:14.365Z,8.43
2022-11-07T06:56:40.631Z,8.32
2022-11-07T06:59:07.115Z,8.63
2022-11-07T07:01:33.486Z,11.57
2022-11-07T07:04:00.784Z,10.32
2022-11-07T07:06:27.063Z,8.52
2022-11-07T07:08:53.344Z,8.98
2022-11-07T07:11:19.686Z,8.68
2022-11-07T07:13:46.030Z,8.00
2022-11-07T07:16:12.932Z,7.75
2022-11-07T07:18:39.257Z,11.38
2022-11-07T07:21:12.586Z,9.30
2022-11-07T07:23:39.191Z,10.10
2022-11-07T07:26:06.634Z,10.18
2022-11-07T07:28:33.233Z,10.90
2022-11-07T07:31:14.815Z,10.57
2022-11-07T07:33:41.442Z,10.85
2022-11-07T07:36:08.131Z,9.57
2022-11-07T07:38:34.483Z,12.15
2022-11-07T07:41:01.147Z,11.13
2022-11-07T07:43:28.025Z,13.18
2022-11-07T07:45:54.443Z,8.20
2022-11-07T07:48:20.780Z,7.82
2022-11-07T07:50:47.958Z,8.02
2022-11-07T07:53:14.258Z,9.00
2022-11-07T07:55:40.572Z,9.98
2022-11-07T07:58:06.860Z,7.18
2022-11-07T08:00:33.351Z,7.93
2022-11-07T08:03:00.304Z,8.68
2022-11-07T08:05:26.560Z,9.40
2022-11-07T08:07:52.971Z,8.35
2022-11-07T08:13:05.919Z,13.55
2022-11-07T08:15:32.202Z,11.93
2022-11-07T08:18:00.645Z,12.32
2022-11-07T08:20:28.062Z,11.65
2022-11-07T08:23:04.347Z,8.38
2022-11-07T08:25:30.796Z,13.07
2022-11-07T08:27:57.075Z,13.07
2022-11-07T08:30:23.389Z,10.43
2022-11-07T08:32:49.675Z,10.35
2022-11-07T08:35:16.019Z,7.38
2022-11-07T08:37:42.297Z,10.68
2022-11-07T08:40:08.987Z,10.18
2022-11-07T08:42:35.317Z,8.68
2022-11-07T08:45:01.650Z,9.32
2022-11-07T08:47:28.508Z,17.05
2022-11-07T08:49:54.855Z,11.07
2022-11-07T08:52:21.174Z,10.57
2022-11-07T08:54:47.608Z,8.98
2022-11-07T08:57:13.982Z,8.75
2022-11-07T08:59:40.386Z,8.20
2022-11-07T09:04:52.962Z,9.00
2022-11-07T09:07:19.345Z,7.70
2022-11-07T09:09:45.679Z,9.15
2022-11-07T09:12:12.007Z,13.48
2022-11-07T09:14:38.325Z,14.35
2022-11-07T09:17:04.671Z,8.48
2022-11-07T09:19:31.165Z,10.20
2022-11-07T09:21:57.520Z,10.38
2022-11-07T09:24:23.838Z,9.30
2022-11-07T09:26:50.205Z,8.60
2022-11-07T09:29:16.534Z,10.80
2022-11-07T09:31:42.865Z,9.50
2022-11-07T09:34:09.239Z,13.60
2022-11-07T09:36:35.483Z,10.52
2022-11-07T09:39:01.884Z,15.88
2022-11-07T09:41:32.950Z,8.27
2022-11-07T09:44:17.635Z,11.45
2022-11-07T09:46:46.909Z,10.57
2022-11-07T09:49:16.334Z,6.85
2022-11-07T09:51:44.963Z,8.63
2022-11-07T09:54:13.711Z,12.90
2022-11-07T09:56:42.283Z,10.07
2022-11-07T09:59:14.501Z,10.82
2022-11-07T10:01:41.332Z,10.68
2022-11-07T10:04:24.895Z,8.35
2022-11-07T10:06:57.392Z,6.95
2022-11-07T10:09:49.991Z,10.63
2022-11-07T10:12:21.345Z,10.77
2022-11-07T10:14:47.580Z,7.60
2022-11-07T10:17:26.129Z,10.32
2022-11-07T10:20:02.999Z,9.43
2022-11-07T10:22:29.228Z,8.65
2022-11-07T10:25:14.941Z,7.10
2022-11-07T10:27:41.209Z,7.45
2022-11-07T10:30:16.052Z,5.20
2022-11-07T10:32:49.587Z,7.75
2022-11-07T10:35:24.417Z,9.40
2022-11-07T10:37:54.911Z,11.30
2022-11-07T10:40:21.814Z,10.18
2022-11-07T10:42:48.488Z,8.43
2022-11-07T10:45:15.880Z,11.05
2022-11-07T10:47:42.642Z,13.32
2022-11-07T10:50:19.521Z,7.38
2022-11-07T10:52:56.789Z,9.93
2022-11-07T10:55:23.845Z,10.32
2022-11-07T10:57:59.431Z,8.60
2022-11-07T11:00:27.589Z,11.55
2022-11-07T11:02:56.030Z,9.35
2022-11-07T11:05:24.112Z,10.95
2022-11-07T11:07:50.535Z,10.50
2022-11-07T11:10:21.418Z,9.07
2022-11-07T11:12:48.189Z,8.15
2022-11-07T11:15:16.430Z,10.38
2022-11-07T11:17:44.455Z,7.18
2022-11-07T11:20:26.809Z,5.10
2022-11-07T11:22:53.663Z,8.00
2022-11-07T11:25:21.663Z,7.45
2022-11-07T11:27:48.996Z,11.18
2022-11-07T11:30:16.818Z,10.95
2022-11-07T11:32:52.334Z,11.85
2022-11-07T11:35:18.599Z,9.57
2022-11-07T11:37:47.807Z,10.80
2022-11-07T11:40:19.048Z,12.75
2022-11-07T11:42:51.048Z,9.75
2022-11-07T11:45:17.373Z,8.48
2022-11-07T11:48:05.315Z,8.20
2022-11-07T11:50:58.081Z,7.68
2022-11-07T11:53:24.412Z,10.38
2022-11-07T11:56:02.631Z,8.68
2022-11-07T11:58:28.991Z,11.35
2022-11-07T12:01:18.665Z,11.57
2022-11-07T12:03:56.887Z,9.55
2022-11-07T12:06:34.609Z,11.63
2022-11-07T12:09:00.981Z,12.82
2022-11-07T12:11:51.700Z,8.80
2022-11-07T12:14:30.136Z,5.05
2022-11-07T12:17:09.112Z,12.48
2022-11-07T12:19:46.606Z,10.77
2022-11-07T12:22:12.844Z,9.05
2022-11-07T12:24:45.327Z,12.25
2022-11-07T12:27:34.899Z,8.20
2022-11-07T12:30:04.166Z,10.70
2022-11-07T12:32:48.794Z,7.03
2022-11-07T12:35:21.163Z,9.60
2022-11-07T12:38:02.964Z,9.85
2022-11-07T12:40:36.810Z,11.45
2022-11-07T12:43:10.070Z,7.63
2022-11-07T12:45:36.319Z,11.55
2022-11-07T12:48:15.145Z,11.15
2022-11-07T12:50:47.446Z,7.70
2022-11-07T12:53:18.959Z,6.95
2022-11-07T12:55:51.223Z,8.57
2022-11-07T12:58:25.335Z,9.27
2022-11-07T13:03:25.775Z,12.52
2022-11-07T13:05:55.589Z,7.93
2022-11-07T13:08:41.017Z,13.55
2022-11-07T13:11:20.865Z,6.72
2022-11-07T13:13:59.382Z,11.27
2022-11-07T13:16:29.956Z,8.88
2022-11-07T13:19:07.667Z,8.05
2022-11-07T13:21:43.812Z,12.52
2022-11-07T13:24:20.568Z,11.10
2022-11-07T13:26:48.042Z,9.02
2022-11-07T13:29:22.557Z,7.93
2022-11-07T13:31:53.331Z,9.20
2022-11-07T13:34:19.587Z,9.55
2022-11-07T13:36:47.341Z,13.57
2022-11-07T13:39:14.425Z,10.60
2022-11-07T13:41:42.488Z,6.07
2022-11-07T13:44:15.617Z,14.88
2022-11-07T13:46:45.189Z,7.70
2022-11-07T13:49:15.155Z,10.68
2022-11-07T13:51:43.173Z,9.15
2022-11-07T13:54:20.683Z,9.30
2022-11-07T13:57:05.724Z,8.63
2022-11-07T13:59:47.298Z,11.52
2022-11-07T14:02:20.148Z,9.68
2022-11-07T14:05:14.658Z,8.30
2022-11-07T14:07:39.447Z,6.70
2022-11-07T14:10:07.450Z,12.77
2022-11-07T14:12:37.589Z,5.72
2022-11-07T14:15:04.423Z,9.05
2022-11-07T14:17:32.506Z,8.40
2022-11-07T14:20:11.309Z,11.77
2022-11-07T14:22:37.790Z,6.28
2022-11-07T14:25:04.190Z,10.02
2022-11-07T14:27:31.338Z,10.90
2022-11-07T14:29:59.807Z,5.88
2022-11-07T14:32:31.570Z,8.48
2022-11-07T14:34:59.552Z,8.25
2022-11-07T14:37:25.964Z,10.82
2022-11-07T14:39:52.704Z,9.80
2022-11-07T14:42:20.527Z,9.45
2022-11-07T14:44:54.415Z,9.15
2022-11-07T14:47:23.060Z,7.50
2022-11-07T14:49:50.142Z,8.55
2022-11-07T14:52:18.676Z,9.10
2022-11-07T14:54:45.805Z,8.23
2022-11-07T14:57:12.994Z,10.85
2022-11-07T14:59:39.795Z,15.20
2022-11-07T15:02:20.182Z,10.73
2022-11-07T15:04:47.273Z,8.35
2022-11-07T15:07:16.665Z,9.82
2022-11-07T15:09:42.989Z,9.63
2022-11-07T15:12:17.800Z,8.38
2022-11-07T15:14:44.748Z,8.75
2022-11-07T15:17:20.613Z,7.18
2022-11-07T15:19:54.365Z,10.48
2022-11-07T15:22:24.843Z,9.38
2022-11-07T15:24:51.132Z,9.88
2022-11-07T15:27:22.319Z,13.07
2022-11-07T15:29:53.075Z,7.28
2022-11-07T15:32:20.481Z,9.20
2022-11-07T15:35:22.912Z,10.75
2022-11-07T15:37:34.791Z,7.53
2022-11-07T15:40:01.171Z,12.40
2022-11-07T15:42:27.511Z,10.45
2022-11-07T15:44:53.845Z,13.63
2022-11-07T15:47:21.991Z,9.90
2022-11-07T15:49:48.502Z,11.20
2022-11-07T15:52:14.885Z,11.73
2022-11-07T15:54:41.175Z,7.47
2022-11-07T15:57:07.959Z,10.13
2022-11-07T15:59:36.497Z,11.80
2022-11-07T16:02:02.902Z,9.45
2022-11-07T16:04:29.456Z,7.75
2022-11-07T16:06:55.841Z,8.18
2022-11-07T16:09:22.186Z,12.23
2022-11-07T16:11:48.543Z,9.98
2022-11-07T16:14:42.416Z,8.40
2022-11-07T16:17:02.682Z,10.75
2022-11-07T16:19:30.139Z,12.77
2022-11-07T16:21:56.681Z,11.70
2022-11-07T16:24:22.965Z,9.85
2022-11-07T16:26:50.312Z,11.23
2022-11-07T16:29:16.596Z,12.38
2022-11-07T16:31:42.947Z,11.07
2022-11-07T16:34:12.641Z,8.20
2022-11-07T16:36:39.570Z,4.60
2022-11-07T16:39:07.869Z,12.13
2022-11-07T16:41:34.404Z,12.05
2022-11-07T16:44:00.726Z,10.38
2022-11-07T16:46:27.679Z,9.15
2022-11-07T16:48:56.959Z,6.65
2022-11-07T16:51:23.292Z,11.90
2022-11-07T16:53:49.806Z,8.55
2022-11-07T16:56:32.259Z,7.80
2022-11-07T16:58:58.925Z,12.73
2022-11-07T17:01:25.515Z,9.93
2022-11-07T17:03:51.956Z,9.13
2022-11-07T17:06:21.251Z,11.45
2022-11-07T17:08:47.809Z,7.40
2022-11-07T17:11:15.172Z,8.77
2022-11-07T17:13:41.461Z,9.07
2022-11-07T17:16:21.456Z,10.20
2022-11-07T17:18:48.937Z,8.32
2022-11-07T17:21:24.536Z,8.07
2022-11-07T17:23:51.724Z,10.68
2022-11-07T17:26:19.705Z,10.27
2022-11-07T17:28:46.001Z,12.43
2022-11-07T17:31:12.643Z,6.30
2022-11-07T17:33:39.050Z,7.05
2022-11-07T17:36:05.667Z,9.55
2022-11-07T17:38:31.940Z,9.10
2022-11-07T17:41:16.967Z,8.95
2022-11-07T17:43:43.802Z,8.48
2022-11-07T17:46:17.095Z,7.25
2022-11-07T17:48:47.240Z,9.95
2022-11-07T17:51:14.399Z,7.72
2022-11-07T17:53:40.844Z,8.30
2022-11-07T17:56:10.221Z,10.05
2022-11-07T17:58:36.480Z,7.78
2022-11-07T18:01:02.767Z,8.25
2022-11-07T18:03:29.212Z,9.15
2022-11-07T18:05:55.546Z,15.23
2022-11-07T18:08:45.913Z,9.88
2022-11-07T18:11:08.356Z,8.32
2022-11-07T18:13:34.860Z,10.43
2022-11-07T18:16:05.715Z,11.73
2022-11-07T18:18:31.989Z,10.25
2022-11-07T18:20:59.807Z,10.48
2022-11-07T18:23:26.098Z,12.15
2022-11-07T18:26:09.537Z,10.75
2022-11-07T18:28:36.721Z,12.17
2022-11-07T18:31:02.980Z,11.57
2022-11-07T18:33:29.397Z,11.82
2022-11-07T18:35:57.342Z,10.02
2022-11-07T18:38:23.668Z,11.13
2022-11-07T18:41:00.720Z,10.15
2022-11-07T18:43:27.464Z,14.07
2022-11-07T18:45:54.579Z,8.95
2022-11-07T18:48:21.532Z,10.65
2022-11-07T18:50:47.947Z,9.85
2022-11-07T18:53:14.343Z,10.48
2022-11-07T18:55:40.863Z,10.40
2022-11-07T18:58:07.176Z,12.60
2022-11-07T19:00:33.654Z,9.18
2022-11-07T19:03:00.176Z,9.70
2022-11-07T19:05:27.373Z,7.43
2022-11-07T19:07:53.700Z,8.85
2022-11-07T19:10:20.183Z,8.35
2022-11-07T19:12:46.745Z,7.70
2022-11-07T19:15:13.260Z,8.57
2022-11-07T19:17:39.593Z,10.65
2022-11-07T19:20:06.076Z,8.25
2022-11-07T19:22:32.430Z,13.27
2022-11-07T19:24:58.700Z,9.63
2022-11-07T19:27:25.030Z,11.75
2022-11-07T19:29:51.361Z,7.63
2022-11-07T19:32:18.620Z,10.45
2022-11-07T19:34:44.950Z,7.38
2022-11-07T19:37:11.893Z,12.95
2022-11-07T19:39:38.355Z,8.20
2022-11-07T19:42:04.711Z,13.07
2022-11-07T19:44:31.480Z,9.68
2022-11-07T19:46:57.744Z,11.57
2022-11-07T19:49:23.996Z,9.55
2022-11-07T19:51:52.119Z,9.32
2022-11-07T19:54:18.491Z,11.43
2022-11-07T19:56:44.780Z,7.53
2022-11-07T19:59:11.078Z,9.73
2022-11-07T20:01:39.179Z,14.40
2022-11-07T20:04:05.612Z,12.20
2022-11-07T20:06:35.241Z,9.40
2022-11-07T20:09:01.853Z,14.15
2022-11-07T20:11:28.174Z,14.00
2022-11-07T20:13:58.688Z,12.32
2022-11-07T20:16:28.287Z,12.52
2022-11-07T20:18:54.592Z,20.40
2022-11-07T20:21:22.478Z,16.70
2022-11-07T20:23:49.174Z,16.65
2022-11-07T20:26:17.646Z,15.85
2022-11-07T20:28:44.209Z,15.38
2022-11-07T20:31:11.465Z,14.77
2022-11-07T20:33:37.876Z,17.67
2022-11-07T20:36:05.881Z,25.83
2022-11-07T20:38:32.640Z,22.70
2022-11-07T20:40:58.972Z,13.65
2022-11-07T20:43:25.394Z,17.20
2022-11-07T20:45:51.736Z,15.25
2022-11-07T20:48:18.753Z,15.38
2022-11-07T20:50:45.491Z,14.93
2022-11-07T20:53:11.822Z,14.15
2022-11-07T20:55:38.849Z,18.55
2022-11-07T20:58:05.243Z,18.33
2022-11-07T21:00:31.635Z,13.45
2022-11-07T21:02:58.011Z,18.00
2022-11-07T21:05:24.279Z,21.92
2022-11-07T21:07:50.754Z,21.60
2022-11-07T21:10:17.082Z,24.05
2022-11-07T21:12:43.611Z,40.00
2022-11-07T21:15:10.244Z,38.70
2022-11-07T21:17:36.869Z,31.23
2022-11-07T21:20:03.989Z,47.42
2022-11-07T21:22:30.318Z,55.17
2022-11-07T21:24:56.784Z,36.42
2022-11-07T21:27:23.120Z,34.17
2022-11-07T21:29:49.405Z,21.63
2022-11-07T21:32:15.707Z,20.33
2022-11-07T21:34:42.641Z,18.08
2022-11-07T21:37:09.081Z,17.05
2022-11-07T21:39:35.356Z,18.13
2022-11-07T21:42:01.680Z,20.42
2022-11-07T21:44:27.948Z,12.45
2022-11-07T21:46:54.252Z,14.60
2022-11-07T21:49:20.535Z,14.52
2022-11-07T21:51:49.800Z,17.15
2022-11-07T21:54:16.075Z,15.40
2022-11-07T21:56:42.372Z,11.93
2022-11-07T21:59:09.569Z,15.20
2022-11-07T22:01:36.987Z,13.95
2022-11-07T22:04:09.669Z,17.98
2022-11-07T22:06:37.378Z,18.50
2022-11-07T22:09:04.623Z,12.95
2022-11-07T22:11:31.246Z,13.75
2022-11-07T22:13:58.324Z,13.05
2022-11-07T22:16:24.686Z,13.50
2022-11-07T22:18:51.095Z,13.35
2022-11-07T22:21:18.719Z,9.77
2022-11-07T22:23:45.080Z,11.57
2022-11-07T22:26:12.470Z,13.55
2022-11-07T22:28:42.941Z,11.77
2022-11-07T22:31:19.359Z,13.32
2022-11-07T22:33:45.959Z,12.23
2022-11-07T22:36:12.865Z,12.63
2022-11-07T22:38:39.867Z,12.55
2022-11-07T22:41:07.143Z,10.20
2022-11-07T22:43:34.218Z,14.25
2022-11-07T22:46:01.129Z,12.40
2022-11-07T22:48:27.424Z,18.95
2022-11-07T22:50:53.685Z,11.18
2022-11-07T22:53:20.221Z,10.18
2022-11-07T22:55:46.714Z,13.05
2022-11-07T22:58:12.987Z,12.27
2022-11-07T23:00:39.254Z,11.85
2022-11-07T23:03:05.711Z,15.80
2022-11-07T23:05:32.032Z,13.85
2022-11-07T23:07:58.381Z,12.93
2022-11-07T23:10:24.667Z,15.57
2022-11-07T23:12:50.927Z,12.77
2022-11-07T23:15:17.249Z,13.70
2022-11-07T23:17:43.552Z,13.50
2022-11-07T23:20:10.404Z,8.73
2022-11-07T23:22:36.950Z,13.57
2022-11-07T23:25:03.343Z,14.35
2022-11-07T23:27:29.693Z,16.00
2022-11-07T23:29:56.035Z,13.75
2022-11-07T23:32:22.325Z,14.75
2022-11-07T23:34:50.133Z,11.63
2022-11-07T23:37:17.845Z,17.02
2022-11-07T23:39:44.247Z,11.85
2022-11-07T23:42:11.045Z,11.90
2022-11-07T23:44:56.671Z,16.90
2022-11-07T23:47:41.745Z,13.52
2022-11-07T23:50:26.825Z,20.30
2022-11-07T23:52:53.259Z,14.63
2022-11-07T23:55:38.404Z,11.50
2022-11-07T23:58:27.962Z,12.10
